Time;durP1;ratioP1;P1;durP2;ratioP2;P2;SDS_P1;SDS_P2;PMS_P1;PMS_P2;Temp;Humidity;BMP_temperature;BMP_pressure;BME280_temperature;BME280_humidity;BME280_pressure;Samples;Min_cycle;Max_cycle;Signal;HPM_P1;HPM_P2
2022/06/06 00:02:07;;;;;;;3.85;1.35;;;22.90;99.90;;;;;;4937273;29;20226;-77
2022/06/06 00:04:36;;;;;;;10.57;1.33;;;22.90;99.90;;;;;;4937553;29;20236;-77
2022/06/06 00:07:03;;;;;;;7.53;1.25;;;22.90;99.90;;;;;;4937434;29;20228;-77
2022/06/06 00:09:31;;;;;;;6.82;1.02;;;22.90;99.90;;;;;;4937483;29;20211;-77
2022/06/06 00:11:59;;;;;;;5.60;1.00;;;22.90;99.90;;;;;;4938187;29;20196;-77
2022/06/06 00:14:26;;;;;;;6.13;1.58;;;22.90;99.90;;;;;;4937481;29;20295;-77
2022/06/06 00:16:54;;;;;;;4.05;1.20;;;22.90;99.90;;;;;;4937303;29;20236;-77
2022/06/06 00:19:21;;;;;;;3.10;1.20;;;23.00;99.90;;;;;;4937840;29;20290;-77
2022/06/06 00:21:48;;;;;;;4.53;1.10;;;22.90;99.90;;;;;;4937200;29;20226;-77
2022/06/06 00:24:15;;;;;;;4.43;1.20;;;23.00;99.90;;;;;;4937256;29;20210;-77
2022/06/06 00:26:43;;;;;;;5.53;0.90;;;22.90;99.90;;;;;;4937140;29;20310;-77
2022/06/06 00:29:13;;;;;;;4.90;0.95;;;22.90;99.90;;;;;;4937142;29;20204;-77
2022/06/06 00:37:13;;;;;;;3.92;1.13;;;22.90;99.90;;;;;;4936676;29;20250;-78
2022/06/06 00:39:40;;;;;;;3.83;1.00;;;22.90;99.90;;;;;;4937222;29;20206;-78
2022/06/06 00:42:13;;;;;;;9.65;1.33;;;22.90;99.90;;;;;;4936621;29;20315;-78
2022/06/06 00:44:41;;;;;;;4.10;1.05;;;23.00;99.90;;;;;;4936927;29;20196;-78
2022/06/06 00:47:16;;;;;;;7.75;1.27;;;22.90;99.90;;;;;;4936804;29;20311;-77
2022/06/06 00:49:49;;;;;;;3.60;1.10;;;23.00;99.90;;;;;;4936871;29;20198;-77
2022/06/06 00:52:21;;;;;;;5.68;1.45;;;23.00;99.90;;;;;;4936533;29;20653;-77
2022/06/06 00:54:51;;;;;;;10.85;1.27;;;23.00;99.90;;;;;;4936502;29;20199;-77
2022/06/06 00:57:22;;;;;;;6.50;1.55;;;23.00;99.90;;;;;;4936709;29;20584;-77
2022/06/06 00:59:50;;;;;;;4.63;1.08;;;22.90;99.90;;;;;;4936755;29;20192;-77
2022/06/06 01:02:18;;;;;;;2.60;0.90;;;23.00;99.90;;;;;;4936552;29;20231;-77
2022/06/06 01:04:47;;;;;;;5.97;1.10;;;23.00;99.90;;;;;;4936302;29;20294;-77
2022/06/06 01:07:15;;;;;;;4.32;1.00;;;23.00;99.90;;;;;;4936608;29;20275;-78
2022/06/06 01:09:44;;;;;;;7.82;1.38;;;22.90;99.90;;;;;;4936799;29;20290;-77
2022/06/06 01:12:15;;;;;;;2.47;1.08;;;23.00;99.90;;;;;;4936504;29;20200;-77
2022/06/06 01:14:47;;;;;;;5.82;0.90;;;23.00;99.90;;;;;;4936521;29;20189;-77
2022/06/06 01:17:25;;;;;;;5.97;0.80;;;23.00;99.90;;;;;;4936476;29;20228;-77
2022/06/06 01:20:19;;;;;;;8.63;1.30;;;23.00;99.90;;;;;;4936506;29;20189;-77
2022/06/06 01:23:18;;;;;;;3.67;1.02;;;23.00;99.90;;;;;;4931932;28;20204;-77
2022/06/06 01:26:23;;;;;;;3.25;1.38;;;23.00;99.90;;;;;;4936125;29;20188;-77
2022/06/06 01:28:57;;;;;;;7.15;1.60;;;23.00;99.90;;;;;;4936114;29;20275;-77
2022/06/06 01:31:33;;;;;;;1.88;1.30;;;22.90;99.90;;;;;;4936080;29;20189;-77
2022/06/06 01:34:04;;;;;;;6.60;0.98;;;23.00;99.90;;;;;;4936404;29;20188;-77
2022/06/06 01:36:33;;;;;;;5.28;1.15;;;23.00;99.90;;;;;;4961067;23;20231;-80
2022/06/06 01:39:04;;;;;;;4.28;1.27;;;23.00;99.90;;;;;;4938583;29;20214;-80
2022/06/06 01:41:39;;;;;;;1.88;0.90;;;23.00;99.90;;;;;;4939005;29;20215;-80
2022/06/06 01:44:11;;;;;;;5.15;1.10;;;23.00;99.90;;;;;;4941597;29;20191;-79
2022/06/06 01:46:38;;;;;;;2.72;1.20;;;23.00;99.90;;;;;;4941569;29;20195;-79
2022/06/06 01:49:09;;;;;;;4.15;1.00;;;22.90;99.90;;;;;;4941305;29;20210;-79
2022/06/06 01:51:36;;;;;;;5.30;1.10;;;22.90;99.90;;;;;;4941166;29;20184;-79
2022/06/06 01:54:03;;;;;;;3.38;0.82;;;22.90;99.90;;;;;;4941068;29;20210;-79
2022/06/06 01:56:34;;;;;;;3.40;1.13;;;22.90;99.90;;;;;;4941300;29;20287;-79
2022/06/06 01:59:01;;;;;;;2.58;1.15;;;23.00;99.90;;;;;;4941638;29;20199;-79
2022/06/06 02:01:30;;;;;;;1.85;1.00;;;23.00;99.90;;;;;;4940593;29;20228;-79
2022/06/06 02:03:58;;;;;;;0.70;0.70;;;23.00;99.90;;;;;;4940803;29;20299;-79
2022/06/06 02:06:25;;;;;;;2.28;0.82;;;23.00;99.90;;;;;;4940453;29;20204;-79
2022/06/06 02:08:52;;;;;;;2.88;0.90;;;23.00;99.90;;;;;;4940519;29;20204;-79
2022/06/06 02:11:20;;;;;;;5.32;1.00;;;23.00;99.90;;;;;;4940526;29;20291;-79
2022/06/06 02:13:47;;;;;;;5.93;1.00;;;23.00;99.90;;;;;;4940283;29;20341;-79
2022/06/06 02:16:14;;;;;;;6.20;1.00;;;23.00;99.90;;;;;;4940124;29;20204;-79
2022/06/06 02:18:42;;;;;;;1.45;1.17;;;23.00;99.90;;;;;;4939662;29;20798;-79
2022/06/06 02:21:09;;;;;;;3.47;1.05;;;23.00;99.90;;;;;;4940410;29;20306;-79
2022/06/06 02:23:36;;;;;;;4.85;1.00;;;23.00;99.90;;;;;;4939996;29;20698;-79
2022/06/06 02:26:03;;;;;;;3.42;0.95;;;23.00;99.90;;;;;;4940465;29;20296;-79
2022/06/06 02:28:30;;;;;;;5.57;1.15;;;23.00;99.90;;;;;;4939382;29;20591;-79
2022/06/06 02:30:57;;;;;;;4.97;0.90;;;23.00;99.90;;;;;;4939900;29;20622;-79
2022/06/06 02:33:24;;;;;;;4.63;1.13;;;23.00;99.90;;;;;;4940048;29;20640;-79
2022/06/06 02:35:53;;;;;;;12.30;1.38;;;23.00;99.90;;;;;;4940363;29;20214;-79
2022/06/06 02:38:21;;;;;;;4.47;1.20;;;23.00;99.90;;;;;;4939931;29;20239;-79
2022/06/06 02:40:48;;;;;;;6.45;1.20;;;23.00;99.90;;;;;;4939996;29;20201;-79
2022/06/06 02:43:15;;;;;;;2.15;0.98;;;23.00;99.90;;;;;;4940158;29;20237;-79
2022/06/06 02:45:46;;;;;;;7.85;1.10;;;23.00;99.90;;;;;;4939714;29;20210;-79
2022/06/06 02:48:13;;;;;;;6.38;1.00;;;23.00;99.90;;;;;;4939588;29;20228;-79
2022/06/06 02:50:42;;;;;;;8.60;1.33;;;23.00;99.90;;;;;;4938948;29;20574;-78
2022/06/06 02:53:10;;;;;;;7.55;1.20;;;23.00;99.90;;;;;;4939039;29;20240;-78
2022/06/06 02:55:37;;;;;;;5.82;1.27;;;23.00;99.90;;;;;;4939317;29;20615;-79
2022/06/06 02:58:04;;;;;;;7.57;0.95;;;23.00;99.90;;;;;;4938841;29;20318;-79
2022/06/06 03:00:33;;;;;;;11.68;1.30;;;23.00;99.90;;;;;;4939155;29;20210;-79
2022/06/06 03:03:01;;;;;;;3.50;1.13;;;23.10;99.90;;;;;;4938986;29;20254;-79
2022/06/06 03:05:40;;;;;;;5.47;1.67;;;23.00;99.90;;;;;;4938652;29;20644;-79
2022/06/06 03:08:20;;;;;;;5.70;1.20;;;23.10;99.90;;;;;;4938822;29;20220;-79
2022/06/06 03:10:59;;;;;;;10.80;1.20;;;23.00;99.90;;;;;;4938749;29;20282;-78
2022/06/06 03:14:06;;;;;;;8.25;1.10;;;23.10;99.90;;;;;;4938931;29;20192;-78
2022/06/06 03:22:53;;;;;;;8.45;1.15;;;23.00;99.90;;;;;;4938828;29;20215;-79
2022/06/06 03:25:28;;;;;;;4.28;1.52;;;23.00;99.90;;;;;;4938835;29;20199;-79
2022/06/06 03:28:01;;;;;;;7.68;1.20;;;23.00;99.90;;;;;;4938565;29;20228;-79
2022/06/06 03:30:38;;;;;;;3.08;1.02;;;23.00;99.90;;;;;;4938600;29;20200;-79
2022/06/06 03:33:15;;;;;;;10.55;1.25;;;23.00;99.90;;;;;;4938648;29;20184;-79
2022/06/06 03:35:52;;;;;;;12.32;1.35;;;23.10;99.90;;;;;;4938358;29;20192;-79
2022/06/06 03:38:28;;;;;;;7.60;1.48;;;23.00;99.90;;;;;;4939209;29;20240;-79
2022/06/06 03:41:05;;;;;;;8.85;1.30;;;23.10;99.90;;;;;;4939820;29;20189;-79
2022/06/06 03:43:41;;;;;;;7.28;1.20;;;23.00;99.90;;;;;;4939976;29;20215;-79
2022/06/06 03:46:20;;;;;;;10.10;1.05;;;23.00;99.90;;;;;;4939734;29;20227;-79
2022/06/06 03:49:02;;;;;;;6.78;1.33;;;23.10;99.90;;;;;;4939936;29;20184;-79
2022/06/06 03:51:40;;;;;;;6.72;1.30;;;23.10;99.90;;;;;;4939892;29;20184;-79
2022/06/06 03:54:16;;;;;;;2.78;0.93;;;23.10;99.90;;;;;;4939621;29;20196;-79
2022/06/06 03:56:55;;;;;;;8.32;1.17;;;23.10;99.90;;;;;;4939885;29;20224;-79
2022/06/06 03:59:23;;;;;;;9.00;1.27;;;23.10;99.90;;;;;;4939734;29;20275;-79
2022/06/06 04:01:52;;;;;;;10.40;1.60;;;23.10;99.90;;;;;;4939285;29;20228;-79
2022/06/06 04:04:20;;;;;;;8.38;1.20;;;23.10;99.90;;;;;;4939099;29;20211;-79
2022/06/06 04:06:48;;;;;;;15.95;1.45;;;23.10;99.90;;;;;;4938887;29;20224;-79
2022/06/06 04:09:15;;;;;;;5.80;1.25;;;23.10;99.90;;;;;;4939955;29;20204;-80
2022/06/06 04:11:57;;;;;;;6.55;1.33;;;23.10;99.90;;;;;;4940784;29;20287;-80
2022/06/06 04:14:36;;;;;;;11.70;1.30;;;23.10;99.90;;;;;;4939688;29;20199;-79
2022/06/06 04:17:17;;;;;;;3.72;1.00;;;23.10;99.90;;;;;;4939842;29;20334;-79
2022/06/06 04:19:56;;;;;;;6.85;1.48;;;23.10;99.90;;;;;;4939386;29;20590;-80
2022/06/06 04:22:32;;;;;;;5.63;1.70;;;23.10;99.90;;;;;;4939230;29;20218;-79
2022/06/06 04:25:09;;;;;;;13.40;1.90;;;23.10;99.90;;;;;;4939608;29;20199;-79
2022/06/06 04:27:45;;;;;;;14.38;1.40;;;23.10;99.90;;;;;;4939029;29;20220;-80
2022/06/06 04:30:18;;;;;;;4.70;1.30;;;23.10;99.90;;;;;;4939282;29;20195;-80
2022/06/06 04:32:56;;;;;;;8.15;1.52;;;23.10;99.90;;;;;;4938878;29;20243;-80
2022/06/06 04:35:30;;;;;;;8.52;1.52;;;23.10;99.90;;;;;;4938630;29;20656;-79
2022/06/06 04:38:04;;;;;;;9.05;1.20;;;23.10;99.90;;;;;;4936677;29;20263;-78
2022/06/06 04:40:38;;;;;;;7.55;1.42;;;23.10;99.90;;;;;;4937129;29;20202;-78
2022/06/06 04:43:14;;;;;;;4.55;0.90;;;23.10;99.90;;;;;;4938223;29;20574;-80
2022/06/06 04:45:47;;;;;;;5.47;1.45;;;23.10;99.90;;;;;;4937054;29;20291;-77
2022/06/06 04:48:17;;;;;;;6.72;0.98;;;23.10;99.90;;;;;;4936541;29;20745;-78
2022/06/06 04:50:45;;;;;;;9.70;1.58;;;23.10;99.90;;;;;;4936844;29;20206;-78
2022/06/06 04:53:16;;;;;;;9.38;1.15;;;23.10;99.90;;;;;;4936859;29;20197;-78
2022/06/06 04:55:45;;;;;;;5.68;1.30;;;23.10;99.90;;;;;;4936805;29;20227;-78
2022/06/06 04:58:16;;;;;;;3.58;1.00;;;23.10;99.90;;;;;;4936678;29;20228;-78
2022/06/06 05:00:43;;;;;;;9.02;0.98;;;23.10;99.90;;;;;;4936726;29;20189;-78
2022/06/06 05:03:10;;;;;;;6.20;1.10;;;23.10;99.90;;;;;;4936571;29;20337;-78
2022/06/06 05:05:50;;;;;;;10.15;1.30;;;23.10;99.90;;;;;;4936623;29;20204;-77
2022/06/06 05:08:32;;;;;;;9.70;1.08;;;23.10;99.90;;;;;;4936550;29;20224;-78
2022/06/06 05:11:14;;;;;;;8.82;1.15;;;23.10;99.90;;;;;;4936650;29;20188;-78
2022/06/06 05:14:18;;;;;;;7.78;1.15;;;23.10;99.90;;;;;;4936899;29;20275;-78
2022/06/06 05:17:11;;;;;;;5.60;1.23;;;23.10;99.90;;;;;;4935523;29;20230;-78
2022/06/06 05:19:52;;;;;;;3.47;1.65;;;23.10;99.90;;;;;;4936454;29;20207;-78
2022/06/06 05:22:44;;;;;;;2.63;1.00;;;23.10;99.90;;;;;;4936473;29;20214;-78
2022/06/06 05:25:30;;;;;;;3.38;1.00;;;23.10;99.90;;;;;;4934452;29;20247;-78
2022/06/06 05:28:25;;;;;;;6.55;1.13;;;23.10;99.90;;;;;;4937234;29;20228;-79
2022/06/06 05:30:57;;;;;;;4.53;1.02;;;23.20;99.90;;;;;;4936885;29;20628;-78
2022/06/06 05:33:33;;;;;;;5.43;1.10;;;23.10;99.90;;;;;;4936507;29;20263;-78
2022/06/06 05:36:37;;;;;;;4.43;1.05;;;23.10;99.90;;;;;;4936061;29;20191;-78
2022/06/06 05:39:16;;;;;;;6.55;1.15;;;23.10;99.90;;;;;;4896352;29;20205;-78
2022/06/06 05:42:03;;;;;;;7.82;1.10;;;23.10;99.90;;;;;;4896112;29;20557;-78
2022/06/06 05:44:40;;;;;;;4.00;0.90;;;23.10;99.90;;;;;;4923788;29;20210;-78
2022/06/06 05:47:16;;;;;;;4.68;1.20;;;23.10;99.90;;;;;;4936702;29;20228;-79
2022/06/06 05:49:55;;;;;;;4.03;1.27;;;23.10;99.90;;;;;;4936922;29;20210;-79
2022/06/06 05:52:44;;;;;;;7.40;1.00;;;23.10;99.90;;;;;;4936598;29;20191;-79
2022/06/06 05:55:28;;;;;;;5.35;1.00;;;23.10;99.90;;;;;;4935967;29;20188;-78
2022/06/06 05:58:11;;;;;;;3.72;1.05;;;23.10;99.90;;;;;;4935810;29;20704;-78
2022/06/06 06:00:50;;;;;;;4.03;0.75;;;23.10;99.90;;;;;;4936691;29;20185;-77
2022/06/06 06:03:47;;;;;;;4.25;1.20;;;23.10;99.90;;;;;;4936345;29;20214;-79
2022/06/06 06:06:22;;;;;;;2.83;0.75;;;23.10;99.90;;;;;;4919613;29;20214;-78
2022/06/06 06:09:10;;;;;;;4.65;0.90;;;23.10;99.90;;;;;;4935849;29;20279;-78
2022/06/06 06:11:52;;;;;;;2.60;0.88;;;23.10;99.90;;;;;;4936147;29;20206;-75
2022/06/06 06:14:31;;;;;;;2.35;1.25;;;23.10;99.90;;;;;;4936044;29;20198;-75
2022/06/06 06:17:00;;;;;;;5.03;1.02;;;23.10;99.90;;;;;;4935695;29;20311;-75
2022/06/06 06:19:37;;;;;;;6.85;1.00;;;23.10;99.90;;;;;;4935965;29;20214;-75
2022/06/06 06:22:06;;;;;;;8.38;1.17;;;23.10;99.90;;;;;;4935634;29;20654;-75
2022/06/06 06:24:37;;;;;;;6.60;1.55;;;23.10;99.90;;;;;;4935887;29;20208;-75
2022/06/06 06:27:05;;;;;;;5.35;0.90;;;23.10;99.90;;;;;;4935580;29;20711;-75
2022/06/06 06:29:33;;;;;;;2.10;0.82;;;23.10;99.90;;;;;;4939053;29;20200;-75
2022/06/06 06:32:14;;;;;;;2.47;1.00;;;23.10;99.90;;;;;;4939316;29;20200;-75
2022/06/06 06:34:58;;;;;;;5.95;1.10;;;23.10;99.90;;;;;;4939325;29;20192;-75
2022/06/06 06:37:45;;;;;;;4.50;1.10;;;23.10;99.90;;;;;;4938767;29;20580;-74
2022/06/06 06:40:24;;;;;;;5.05;1.00;;;23.10;99.90;;;;;;4939219;29;20215;-75
2022/06/06 06:43:10;;;;;;;1.38;1.00;;;23.10;99.90;;;;;;4939103;29;20219;-75
2022/06/06 06:45:42;;;;;;;6.32;1.20;;;23.10;99.90;;;;;;4939098;29;20188;-75
2022/06/06 06:48:12;;;;;;;7.38;0.90;;;23.10;99.90;;;;;;4938709;29;20644;-75
2022/06/06 06:50:48;;;;;;;7.10;0.98;;;23.10;99.90;;;;;;4939046;29;20196;-75
2022/06/06 06:53:34;;;;;;;8.60;1.15;;;23.10;99.90;;;;;;4938660;29;20532;-75
2022/06/06 06:56:12;;;;;;;5.47;1.10;;;23.10;99.90;;;;;;4938920;29;20629;-75
2022/06/06 06:58:51;;;;;;;4.40;0.75;;;23.10;99.90;;;;;;4938773;29;20227;-75
2022/06/06 07:01:24;;;;;;;4.18;1.13;;;23.20;99.90;;;;;;4938842;29;20196;-75
2022/06/06 07:10:02;;;;;;;5.20;0.98;;;23.10;99.90;;;;;;4938528;29;20208;-75
2022/06/06 07:12:45;;;;;;;4.05;0.90;;;23.10;99.90;;;;;;4938323;29;20660;-75
2022/06/06 07:15:21;;;;;;;6.68;1.10;;;23.10;99.90;;;;;;4938654;29;20196;-75
2022/06/06 07:17:52;;;;;;;4.90;1.10;;;23.10;99.90;;;;;;4940064;29;20228;-75
2022/06/06 07:20:21;;;;;;;6.05;1.08;;;23.10;99.90;;;;;;4943477;29;20244;-75
2022/06/06 07:23:03;;;;;;;8.13;1.08;;;23.10;99.90;;;;;;4942570;29;20706;-75
2022/06/06 07:25:34;;;;;;;6.22;1.00;;;23.10;99.90;;;;;;4942976;29;20196;-75
2022/06/06 07:28:02;;;;;;;3.03;0.68;;;23.10;99.90;;;;;;4940480;29;20228;-75
2022/06/06 07:30:33;;;;;;;4.10;1.35;;;23.10;99.90;;;;;;4942047;29;20252;-75
2022/06/06 07:33:15;;;;;;;4.85;0.60;;;23.20;99.90;;;;;;4942672;29;20196;-75
2022/06/06 07:35:54;;;;;;;3.63;1.10;;;23.20;99.90;;;;;;4942476;29;20267;-75
2022/06/06 07:38:34;;;;;;;1.77;1.50;;;23.20;99.90;;;;;;4942864;29;20361;-75
2022/06/06 07:41:21;;;;;;;3.05;1.30;;;23.10;99.90;;;;;;4941245;29;20212;-74
2022/06/06 07:44:15;;;;;;;1.60;0.70;;;23.10;99.90;;;;;;4943118;29;20244;-75
2022/06/06 07:46:57;;;;;;;7.43;1.23;;;23.10;99.90;;;;;;4943428;29;20238;-75
2022/06/06 07:49:33;;;;;;;10.60;2.03;;;23.10;99.90;;;;;;4943254;29;20192;-75
2022/06/06 07:52:09;;;;;;;8.77;1.15;;;23.10;99.90;;;;;;4942619;29;20275;-74
2022/06/06 07:54:49;;;;;;;9.48;1.73;;;23.10;99.90;;;;;;4943493;29;20189;-77
2022/06/06 07:57:26;;;;;;;3.90;1.50;;;23.20;99.90;;;;;;4943811;29;20231;-76
2022/06/06 08:00:02;;;;;;;8.30;1.95;;;23.20;99.90;;;;;;4941621;29;20273;-76
2022/06/06 08:03:05;;;;;;;4.20;1.60;;;23.20;99.90;;;;;;4937751;29;20188;-77
2022/06/06 08:05:55;;;;;;;2.28;1.52;;;23.10;99.90;;;;;;4922920;29;20216;-75
2022/06/06 08:08:38;;;;;;;5.68;2.08;;;23.10;99.90;;;;;;4937283;29;20230;-77
2022/06/06 08:11:14;;;;;;;2.00;1.90;;;23.00;99.90;;;;;;4937631;29;20184;-75
2022/06/06 08:13:49;;;;;;;8.65;3.90;;;23.00;99.90;;;;;;4937301;29;20654;-76
2022/06/06 08:16:25;;;;;;;6.63;3.80;;;23.00;99.90;;;;;;4937089;29;20227;-76
2022/06/06 08:19:14;;;;;;;6.40;3.30;;;23.00;99.90;;;;;;4937402;29;20226;-76
2022/06/06 08:21:43;;;;;;;5.60;3.00;;;23.00;99.90;;;;;;4937356;29;20184;-76
2022/06/06 08:24:16;;;;;;;3.20;2.55;;;23.00;99.90;;;;;;4937790;29;20234;-76
2022/06/06 08:26:49;;;;;;;4.80;2.55;;;23.00;99.90;;;;;;4937311;29;20231;-77
2022/06/06 08:29:17;;;;;;;4.70;2.35;;;23.00;99.90;;;;;;4936989;29;20636;-77
2022/06/06 08:31:44;;;;;;;5.32;2.17;;;22.90;99.90;;;;;;4937137;29;20211;-77
2022/06/06 08:34:12;;;;;;;1.85;1.70;;;22.90;99.90;;;;;;4936841;29;20740;-77
2022/06/06 08:37:13;;;;;;;2.03;1.88;;;22.90;99.90;;;;;;4936907;29;20204;-77
2022/06/06 08:39:49;;;;;;;7.35;1.92;;;22.90;99.90;;;;;;4937446;29;20189;-77
2022/06/06 08:42:26;;;;;;;2.72;1.77;;;22.90;99.90;;;;;;4937010;29;20192;-77
2022/06/06 08:45:19;;;;;;;2.30;1.70;;;22.80;99.90;;;;;;4936657;29;20671;-79
2022/06/06 08:47:59;;;;;;;3.03;1.45;;;22.80;99.90;;;;;;4936882;29;20232;-77
2022/06/06 08:50:48;;;;;;;1.98;1.77;;;22.80;99.90;;;;;;4936512;29;20193;-77
2022/06/06 08:53:50;;;;;;;2.45;1.08;;;22.80;99.90;;;;;;4936862;29;20181;-77
2022/06/06 08:57:05;;;;;;;3.08;1.63;;;22.80;99.90;;;;;;4936833;29;20196;-78
2022/06/06 09:00:06;;;;;;;6.97;1.92;;;22.80;99.90;;;;;;4936579;29;20196;-78
2022/06/06 09:03:01;;;;;;;2.45;1.42;;;22.70;99.90;;;;;;4936398;29;20637;-78
2022/06/06 09:05:56;;;;;;;4.80;1.60;;;22.80;99.90;;;;;;4936866;29;20273;-77
2022/06/06 09:09:10;;;;;;;5.22;2.17;;;22.80;99.90;;;;;;4937200;29;20231;-77
2022/06/06 09:12:14;;;;;;;5.13;1.80;;;22.80;99.90;;;;;;4936507;29;20206;-76
2022/06/06 09:15:12;;;;;;;2.88;2.15;;;22.80;99.90;;;;;;4936317;29;20244;-76
2022/06/06 09:18:41;;;;;;;5.55;2.17;;;22.80;99.90;;;;;;4933175;29;20224;-76
2022/06/06 09:21:35;;;;;;;4.72;2.20;;;22.80;99.90;;;;;;4936520;29;20230;-76
2022/06/06 09:24:47;;;;;;;4.18;2.05;;;22.80;99.90;;;;;;4936426;29;20313;-76
2022/06/06 09:27:40;;;;;;;2.13;1.88;;;22.80;99.90;;;;;;4923854;29;20226;-77
2022/06/06 09:30:19;;;;;;;1.83;1.73;;;22.80;99.90;;;;;;4918021;29;20203;-77
2022/06/06 09:33:15;;;;;;;3.30;1.80;;;22.90;99.90;;;;;;4936472;29;20199;-76
2022/06/06 09:35:54;;;;;;;2.03;1.85;;;22.90;99.90;;;;;;4936449;29;20197;-76
2022/06/06 09:38:34;;;;;;;3.15;1.80;;;22.90;99.90;;;;;;4936028;29;20239;-75
2022/06/06 09:41:22;;;;;;;9.27;2.08;;;22.90;99.90;;;;;;4936009;29;20633;-76
2022/06/06 09:43:56;;;;;;;5.90;2.20;;;23.00;99.90;;;;;;4935970;29;20755;-77
2022/06/06 09:46:59;;;;;;;9.10;2.20;;;23.00;99.90;;;;;;4935906;29;20188;-77
2022/06/06 09:50:10;;;;;;;14.60;3.17;;;23.00;99.90;;;;;;4936077;29;20564;-77
2022/06/06 09:53:14;;;;;;;13.07;2.17;;;23.00;99.90;;;;;;4917646;29;20203;-77
2022/06/06 09:59:47;;;;;;;4.97;2.15;;;23.00;99.90;;;;;;4917600;29;20554;-79
2022/06/06 10:02:48;;;;;;;9.57;1.90;;;23.00;99.90;;;;;;4921270;29;20200;-77
2022/06/06 10:05:48;;;;;;;9.25;2.10;;;23.00;99.90;;;;;;4939617;29;20201;-78
2022/06/06 10:09:14;;;;;;;13.10;2.20;;;23.00;99.90;;;;;;4946726;29;20231;-77
2022/06/06 10:12:23;;;;;;;8.00;2.50;;;23.00;99.90;;;;;;4947725;29;20188;-77
2022/06/06 10:15:23;;;;;;;9.07;1.98;;;23.00;99.90;;;;;;4940970;29;20212;-77
2022/06/06 10:18:19;;;;;;;6.75;2.35;;;23.10;99.90;;;;;;4947286;29;20238;-77
2022/06/06 10:21:01;;;;;;;12.85;2.00;;;23.10;99.90;;;;;;4944976;29;20204;-77
2022/06/06 10:23:47;;;;;;;10.27;2.20;;;23.10;99.90;;;;;;4943039;29;20699;-78
2022/06/06 10:26:39;;;;;;;13.18;2.28;;;23.10;99.90;;;;;;4945380;29;20275;-80
2022/06/06 10:32:33;;;;;;;32.58;3.60;;;23.10;99.90;;;;;;4952884;29;20273;-79
2022/06/06 10:35:13;;;;;;;25.33;2.70;;;23.10;99.90;;;;;;4948160;29;20636;-79
2022/06/06 10:37:53;;;;;;;24.13;3.08;;;23.10;99.90;;;;;;4948728;29;20262;-79
2022/06/06 10:40:57;;;;;;;11.15;2.38;;;23.10;99.90;;;;;;4946070;29;20193;-79
2022/06/06 10:43:59;;;;;;;14.70;2.13;;;23.10;99.90;;;;;;4929839;29;20225;-79
2022/06/06 10:46:32;;;;;;;11.65;2.35;;;23.10;99.90;;;;;;4944004;29;20258;-80
2022/06/06 10:49:22;;;;;;;14.95;2.00;;;23.10;99.90;;;;;;4959078;29;20193;-79
2022/06/06 10:52:26;;;;;;;14.63;2.55;;;23.20;99.90;;;;;;4951691;29;20267;-80
2022/06/06 10:55:21;;;;;;;12.27;2.25;;;23.20;99.90;;;;;;4949699;29;20238;-81
2022/06/06 10:58:27;;;;;;;11.98;1.95;;;23.10;99.90;;;;;;4949889;29;20256;-80
2022/06/06 11:01:33;;;;;;;6.85;2.00;;;23.10;99.90;;;;;;4930330;29;20287;-80
2022/06/06 11:04:27;;;;;;;12.48;2.05;;;23.10;99.90;;;;;;4943640;29;20228;-80
2022/06/06 11:07:25;;;;;;;10.73;2.17;;;23.20;99.90;;;;;;4942451;29;20307;-79
2022/06/06 11:10:18;;;;;;;4.97;2.05;;;23.20;99.90;;;;;;4942894;29;20188;-79
2022/06/06 11:13:17;;;;;;;4.20;1.27;;;23.20;99.90;;;;;;4935346;29;20680;-81
2022/06/06 11:15:59;;;;;;;9.23;2.47;;;23.20;99.90;;;;;;4942811;29;20621;-80
2022/06/06 11:19:01;;;;;;;2.33;2.13;;;23.20;99.90;;;;;;4943789;29;20288;-79
2022/06/06 11:22:11;;;;;;;5.88;2.08;;;23.20;99.90;;;;;;4943610;29;20648;-80
2022/06/06 11:24:47;;;;;;;6.53;2.05;;;23.20;99.90;;;;;;4943511;29;20275;-80
2022/06/06 11:27:43;;;;;;;20.80;2.00;;;23.20;99.90;;;;;;4941886;29;20224;-78
2022/06/06 11:30:25;;;;;;;11.20;1.77;;;23.30;99.90;;;;;;4939666;29;20280;-78
2022/06/06 11:33:28;;;;;;;8.85;2.08;;;23.20;99.90;;;;;;4941490;29;20184;-78
2022/06/06 11:36:13;;;;;;;5.60;1.63;;;23.30;99.90;;;;;;4934646;29;20203;-78
2022/06/06 11:39:13;;;;;;;6.28;2.08;;;23.30;99.90;;;;;;4940844;29;20238;-78
2022/06/06 11:41:58;;;;;;;4.32;1.50;;;23.30;99.90;;;;;;4940908;29;20611;-78
2022/06/06 11:44:55;;;;;;;5.13;1.85;;;23.30;99.90;;;;;;4940554;29;20212;-78
2022/06/06 11:47:45;;;;;;;9.10;1.92;;;23.30;99.90;;;;;;4941160;29;20256;-78
2022/06/06 11:50:54;;;;;;;5.25;1.60;;;23.30;99.90;;;;;;4940976;29;20271;-78
2022/06/06 11:53:52;;;;;;;8.60;1.80;;;23.30;99.90;;;;;;4940801;29;20195;-78
2022/06/06 11:56:39;;;;;;;6.72;1.65;;;23.30;99.90;;;;;;4941057;29;20231;-78
2022/06/06 11:59:31;;;;;;;3.22;1.65;;;23.30;99.90;;;;;;4940816;29;20196;-78
2022/06/06 12:02:25;;;;;;;4.15;1.60;;;23.30;99.90;;;;;;4941286;29;20555;-78
2022/06/06 12:05:16;;;;;;;6.90;1.65;;;23.30;99.90;;;;;;4941187;29;20571;-78
2022/06/06 12:08:19;;;;;;;5.57;1.55;;;23.30;99.90;;;;;;4940867;29;20666;-78
2022/06/06 12:11:03;;;;;;;1.90;1.80;;;23.30;99.90;;;;;;4941261;29;20199;-78
2022/06/06 12:14:06;;;;;;;5.43;1.52;;;23.30;99.90;;;;;;4941124;29;20195;-78
2022/06/06 12:16:39;;;;;;;4.57;2.08;;;23.30;99.90;;;;;;4940672;29;20203;-78
2022/06/06 12:19:38;;;;;;;4.30;2.35;;;23.30;99.90;;;;;;4940657;29;20240;-78
2022/06/06 12:22:28;;;;;;;2.42;1.20;;;23.30;99.90;;;;;;4940396;29;20268;-78
2022/06/06 12:25:28;;;;;;;5.28;1.35;;;23.30;99.90;;;;;;4940305;29;20275;-78
2022/06/06 12:28:26;;;;;;;1.50;1.40;;;23.40;99.90;;;;;;4938916;29;20294;-79
2022/06/06 12:31:16;;;;;;;5.05;1.75;;;23.30;99.90;;;;;;4940628;29;20192;-78
2022/06/06 12:33:50;;;;;;;4.47;1.45;;;23.40;99.90;;;;;;4939822;29;20188;-78
2022/06/06 12:36:22;;;;;;;3.40;1.20;;;23.30;99.90;;;;;;4939842;29;20220;-78
2022/06/06 12:38:56;;;;;;;1.65;1.33;;;23.30;99.90;;;;;;4939227;29;20244;-78
2022/06/06 12:41:46;;;;;;;2.15;1.20;;;23.30;99.90;;;;;;4939774;29;20184;-78
2022/06/06 12:44:29;;;;;;;2.78;1.50;;;23.40;99.90;;;;;;4940228;29;20575;-78
2022/06/06 12:47:17;;;;;;;2.88;1.23;;;23.40;99.90;;;;;;4939977;29;20315;-78
2022/06/06 12:50:08;;;;;;;4.40;1.40;;;23.40;99.90;;;;;;4920179;29;20208;-78
2022/06/06 12:53:09;;;;;;;4.65;1.30;;;23.40;99.90;;;;;;4939407;29;20555;-78
2022/06/06 12:56:04;;;;;;;3.50;1.38;;;23.40;99.90;;;;;;4939941;29;20194;-78
2022/06/06 12:58:39;;;;;;;2.08;1.13;;;23.30;99.90;;;;;;4939464;29;20291;-78
2022/06/06 13:04:28;;;;;;;1.27;1.27;;;23.40;99.90;;;;;;4939157;29;20259;-78
2022/06/06 13:07:04;;;;;;;4.13;1.52;;;23.40;99.90;;;;;;4933227;29;20293;-78
2022/06/06 13:09:50;;;;;;;1.55;1.35;;;23.40;99.90;;;;;;4939653;29;20202;-78
2022/06/06 13:12:31;;;;;;;2.70;1.27;;;23.40;99.90;;;;;;4939332;29;20230;-78
2022/06/06 13:15:09;;;;;;;2.33;1.33;;;23.40;99.90;;;;;;4939071;29;20271;-78
2022/06/06 13:17:50;;;;;;;1.10;1.10;;;23.40;99.90;;;;;;4939387;29;20224;-78
2022/06/06 13:20:27;;;;;;;1.20;1.15;;;23.40;99.90;;;;;;4939393;29;20279;-78
2022/06/06 13:23:33;;;;;;;5.47;1.30;;;23.40;99.90;;;;;;4939194;29;20270;-78
2022/06/06 13:26:16;;;;;;;3.80;1.40;;;23.50;99.90;;;;;;4939014;29;20208;-78
2022/06/06 13:28:50;;;;;;;1.77;1.33;;;23.40;99.90;;;;;;4938964;29;20224;-78
2022/06/06 13:31:37;;;;;;;3.20;1.52;;;23.40;99.90;;;;;;4939363;29;20553;-78
2022/06/06 13:34:26;;;;;;;1.90;1.40;;;23.40;99.90;;;;;;4940217;29;20193;-78
2022/06/06 13:37:10;;;;;;;1.63;1.10;;;23.50;99.90;;;;;;4938999;29;20228;-78
2022/06/06 13:39:54;;;;;;;4.63;1.25;;;23.40;99.90;;;;;;4942524;29;20210;-78
2022/06/06 13:42:42;;;;;;;2.33;1.30;;;23.50;99.90;;;;;;4942943;29;20199;-78
2022/06/06 13:45:21;;;;;;;2.85;1.02;;;23.50;99.90;;;;;;4942795;29;20219;-78
2022/06/06 13:48:10;;;;;;;1.10;1.10;;;23.50;99.90;;;;;;4943006;29;20591;-78
2022/06/06 13:50:50;;;;;;;3.40;1.13;;;23.50;99.90;;;;;;4943284;29;20688;-78
2022/06/06 13:53:50;;;;;;;3.05;1.23;;;23.40;99.90;;;;;;4942438;29;20192;-78
2022/06/06 13:56:45;;;;;;;1.05;1.05;;;23.50;99.90;;;;;;4921058;29;20290;-78
2022/06/06 13:59:37;;;;;;;1.08;1.08;;;23.50;99.90;;;;;;4942989;29;20189;-78
2022/06/06 14:02:15;;;;;;;2.28;1.17;;;23.40;99.90;;;;;;4942850;29;20192;-78
2022/06/06 14:04:55;;;;;;;1.30;1.20;;;23.40;99.90;;;;;;4942464;29;20291;-78
2022/06/06 14:07:36;;;;;;;1.27;1.17;;;23.50;99.90;;;;;;4942931;29;20219;-78
2022/06/06 14:10:09;;;;;;;3.10;1.27;;;23.50;99.90;;;;;;4941465;29;20188;-79
2022/06/06 14:12:53;;;;;;;9.30;1.80;;;23.40;99.90;;;;;;4941681;29;20447;-79
2022/06/06 14:15:24;;;;;;;8.13;2.05;;;23.80;99.90;;;;;;4940734;29;20189;-78
2022/06/06 14:17:54;;;;;;;2.95;1.30;;;23.60;99.90;;;;;;4941295;29;20248;-78
2022/06/06 14:20:32;;;;;;;5.95;1.85;;;23.50;99.90;;;;;;4941443;29;20715;-78
2022/06/06 14:23:20;;;;;;;4.88;1.77;;;23.50;99.90;;;;;;4942732;29;20267;-79
2022/06/06 14:25:48;;;;;;;2.75;1.45;;;23.60;99.90;;;;;;4942701;29;20256;-78